createdAt,value
2023-05-05T00:02:15.455Z,101401.47
2023-05-05T00:04:42.267Z,101390.13
2023-05-05T00:07:09.026Z,101385.50
2023-05-05T00:09:35.785Z,101396.69
2023-05-05T00:12:02.887Z,101374.47
2023-05-05T00:14:29.775Z,101398.88
2023-05-05T00:16:56.512Z,101389.84
2023-05-05T00:19:23.101Z,101373.03
2023-05-05T00:21:49.786Z,101377.81
2023-05-05T00:24:16.860Z,101396.13
2023-05-05T00:26:43.450Z,101394.41
2023-05-05T00:29:10.340Z,101385.25
2023-05-05T00:31:37.803Z,101372.50
2023-05-05T00:34:04.668Z,101388.97
2023-05-05T00:36:31.329Z,101382.16
2023-05-05T00:38:57.876Z,101394.38
2023-05-05T00:41:24.635Z,101377.72
2023-05-05T00:43:52.535Z,101390.75
2023-05-05T00:46:24.561Z,101388.38
2023-05-05T00:48:51.900Z,101392.09
2023-05-05T00:51:20.184Z,101384.13
2023-05-05T00:53:47.845Z,101383.78
2023-05-05T00:56:16.927Z,101379.69
2023-05-05T00:58:44.132Z,101378.16
2023-05-05T01:01:12.012Z,101374.91
2023-05-05T01:03:40.244Z,101372.50
2023-05-05T01:06:34.809Z,101373.13
2023-05-05T01:09:19.553Z,101359.72
2023-05-05T01:12:24.835Z,101372.09
2023-05-05T01:15:26.713Z,101362.59
2023-05-05T01:18:00.975Z,101359.66
2023-05-05T01:20:47.384Z,101369.47
2023-05-05T01:23:29.581Z,101364.22
2023-05-05T01:26:14.869Z,101366.81
2023-05-05T01:29:10.287Z,101369.84
2023-05-05T01:31:52.522Z,101351.59
2023-05-05T01:34:34.950Z,101356.63
2023-05-05T01:37:18.311Z,101367.16
2023-05-05T01:39:50.063Z,101361.41
2023-05-05T01:42:18.677Z,101344.72
2023-05-05T01:44:47.640Z,101341.13
2023-05-05T01:47:19.676Z,101342.97
2023-05-05T01:49:47.790Z,101351.31
2023-05-05T01:52:16.137Z,101345.75
2023-05-05T01:54:47.889Z,101351.16
2023-05-05T01:57:15.663Z,101312.75
2023-05-05T01:59:42.685Z,101342.28
2023-05-05T02:02:12.377Z,101340.25
2023-05-05T02:04:42.523Z,101303.16
2023-05-05T02:07:11.482Z,101330.91
2023-05-05T02:09:38.914Z,101334.16
2023-05-05T02:12:07.216Z,101335.47
2023-05-05T02:14:35.051Z,101336.16
2023-05-05T02:17:02.216Z,101346.97
2023-05-05T02:19:31.836Z,101336.31
2023-05-05T02:21:58.502Z,101345.66
2023-05-05T02:24:28.914Z,101335.47
2023-05-05T02:26:58.086Z,101320.78
2023-05-05T02:29:30.816Z,101333.84
2023-05-05T02:32:06.895Z,101339.25
2023-05-05T02:34:36.947Z,101333.84
2023-05-05T02:37:07.631Z,101313.91
2023-05-05T02:39:45.811Z,101312.59
2023-05-05T02:42:18.575Z,101326.34
2023-05-05T02:44:46.356Z,101308.50
2023-05-05T02:47:13.394Z,101325.50
2023-05-05T02:49:40.215Z,101331.31
2023-05-05T02:52:06.865Z,101309.13
2023-05-05T02:54:33.828Z,101323.75
2023-05-05T02:57:01.488Z,101323.75
2023-05-05T02:59:35.065Z,101330.69
2023-05-05T03:02:17.014Z,101332.22
2023-05-05T03:04:50.618Z,101323.13
2023-05-05T03:07:42.644Z,101325.81
2023-05-05T03:10:13.859Z,101318.25
2023-05-05T03:12:48.426Z,101333.69
2023-05-05T03:15:18.357Z,101328.28
2023-05-05T03:17:46.637Z,101322.50
2023-05-05T03:20:15.127Z,101320.72
2023-05-05T03:22:41.737Z,101319.72
2023-05-05T03:25:08.737Z,101300.94
2023-05-05T03:27:37.996Z,101319.84
2023-05-05T03:30:05.567Z,101329.09
2023-05-05T03:32:32.429Z,101299.03
2023-05-05T03:34:59.117Z,101309.03
2023-05-05T03:37:25.681Z,101319.34
2023-05-05T03:39:52.279Z,101323.06
2023-05-05T03:42:18.821Z,101330.56
2023-05-05T03:44:45.488Z,101325.00
2023-05-05T03:47:12.089Z,101320.63
2023-05-05T03:49:38.689Z,101316.72
2023-05-05T03:52:05.641Z,101328.13
2023-05-05T03:54:32.196Z,101296.31
2023-05-05T03:56:59.049Z,101309.19
2023-05-05T03:59:25.683Z,101301.22
2023-05-05T04:01:52.513Z,101317.69
2023-05-05T04:04:19.231Z,101300.41
2023-05-05T04:06:45.934Z,101299.53
2023-05-05T04:09:12.483Z,101299.00
2023-05-05T04:11:39.083Z,101308.19
2023-05-05T04:14:05.628Z,101320.47
2023-05-05T04:16:32.234Z,101307.97
2023-05-05T04:18:58.924Z,101313.13
2023-05-05T04:21:25.617Z,101314.53
2023-05-05T04:23:52.876Z,101313.22
2023-05-05T04:26:19.598Z,101321.41
2023-05-05T04:28:46.252Z,101310.28
2023-05-05T04:31:13.113Z,101313.44
2023-05-05T04:33:39.900Z,101319.59
2023-05-05T04:36:06.813Z,101310.03
2023-05-05T04:38:33.577Z,101317.75
2023-05-05T04:41:00.611Z,101320.34
2023-05-05T04:43:27.948Z,101311.78
2023-05-05T04:45:57.802Z,101313.69
2023-05-05T04:48:24.415Z,101324.56
2023-05-05T04:50:51.463Z,101325.75
2023-05-05T04:53:18.182Z,101327.13
2023-05-05T04:55:44.852Z,101328.19
2023-05-05T04:58:11.443Z,101292.25
2023-05-05T05:00:38.136Z,101323.91
2023-05-05T05:03:05.040Z,101315.03
2023-05-05T05:05:31.711Z,101318.28
2023-05-05T05:07:58.355Z,101325.63
2023-05-05T05:10:24.957Z,101323.19
2023-05-05T05:12:51.536Z,101330.03
2023-05-05T05:15:18.102Z,101333.91
2023-05-05T05:17:44.751Z,101347.00
2023-05-05T05:20:11.768Z,101351.44
2023-05-05T05:22:38.958Z,101345.38
2023-05-05T05:25:05.913Z,101359.81
2023-05-05T05:27:32.468Z,101355.97
2023-05-05T05:29:59.032Z,101355.53
2023-05-05T05:32:25.841Z,101352.72
2023-05-05T05:34:52.461Z,101355.69
2023-05-05T05:37:19.197Z,101352.84
2023-05-05T05:39:51.529Z,101361.38
2023-05-05T05:42:18.171Z,101361.88
2023-05-05T05:44:44.767Z,101361.69
2023-05-05T05:47:11.453Z,101349.78
2023-05-05T05:49:38.095Z,101363.25
2023-05-05T05:52:04.811Z,101361.66
2023-05-05T05:54:32.889Z,101357.09
2023-05-05T05:56:59.459Z,101361.81
2023-05-05T05:59:26.035Z,101366.34
2023-05-05T06:01:52.749Z,101358.75
2023-05-05T06:04:19.307Z,101357.72
2023-05-05T06:06:45.912Z,101363.94
2023-05-05T06:09:13.013Z,101360.94
2023-05-05T06:11:39.747Z,101365.81
2023-05-05T06:14:06.355Z,101371.22
2023-05-05T06:16:33.167Z,101366.38
2023-05-05T06:19:00.029Z,101364.91
2023-05-05T06:21:27.752Z,101368.69
2023-05-05T06:23:54.345Z,101362.81
2023-05-05T06:26:21.551Z,101380.47
2023-05-05T06:28:48.177Z,101379.22
2023-05-05T06:31:14.877Z,101379.56
2023-05-05T06:33:44.042Z,101366.19
2023-05-05T06:36:14.274Z,101377.75
2023-05-05T06:38:45.718Z,101367.56
2023-05-05T06:41:12.856Z,101376.44
2023-05-05T06:43:39.807Z,101377.47
2023-05-05T06:46:06.581Z,101380.94
2023-05-05T06:48:33.221Z,101376.09
2023-05-05T06:50:59.913Z,101384.44
2023-05-05T06:53:26.538Z,101381.66
2023-05-05T06:55:53.125Z,101387.91
2023-05-05T06:58:21.101Z,101380.06
2023-05-05T07:00:47.548Z,101394.50
2023-05-05T07:03:14.453Z,101384.09
2023-05-05T07:05:41.123Z,101372.91
2023-05-05T07:08:09.088Z,101395.84
2023-05-05T07:10:35.981Z,101392.53
2023-05-05T07:13:03.012Z,101390.25
2023-05-05T07:15:29.960Z,101388.31
2023-05-05T07:17:57.269Z,101393.91
2023-05-05T07:20:24.560Z,101393.75
2023-05-05T07:22:51.256Z,101397.88
2023-05-05T07:25:17.943Z,101395.28
2023-05-05T07:27:44.761Z,101383.22
2023-05-05T07:30:16.312Z,101382.53
2023-05-05T07:32:44.175Z,101379.78
2023-05-05T07:35:10.913Z,101378.44
2023-05-05T07:37:37.595Z,101382.03
2023-05-05T07:40:04.643Z,101380.03
2023-05-05T07:42:31.270Z,101378.97
2023-05-05T07:44:57.825Z,101388.38
2023-05-05T07:47:24.594Z,101370.16
2023-05-05T07:49:51.446Z,101387.63
2023-05-05T07:52:18.077Z,101376.28
2023-05-05T07:54:45.458Z,101379.41
2023-05-05T07:57:12.074Z,101381.75
2023-05-05T07:59:41.122Z,101380.94
2023-05-05T08:02:07.731Z,101385.47
2023-05-05T08:04:34.461Z,101375.47
2023-05-05T08:07:01.198Z,101379.53
2023-05-05T08:09:27.816Z,101366.38
2023-05-05T08:11:54.658Z,101370.69
2023-05-05T08:14:21.290Z,101367.88
2023-05-05T08:16:48.948Z,101382.13
2023-05-05T08:19:28.257Z,101362.03
2023-05-05T08:21:56.094Z,101381.00
2023-05-05T08:24:22.749Z,101377.38
2023-05-05T08:26:49.404Z,101372.81
2023-05-05T08:29:16.082Z,101380.50
2023-05-05T08:31:42.721Z,101367.47
2023-05-05T08:34:09.402Z,101381.72
2023-05-05T08:36:36.056Z,101380.38
2023-05-05T08:39:02.902Z,101381.13
2023-05-05T08:41:29.501Z,101365.78
2023-05-05T08:43:56.117Z,101369.97
2023-05-05T08:46:23.862Z,101376.66
2023-05-05T08:48:54.948Z,101377.13
2023-05-05T08:51:22.080Z,101384.63
2023-05-05T08:53:54.469Z,101378.47
2023-05-05T08:56:22.091Z,101375.97
2023-05-05T08:58:49.611Z,101381.69
2023-05-05T09:01:17.029Z,101384.72
2023-05-05T09:03:44.907Z,101390.38
2023-05-05T09:06:11.530Z,101386.97
2023-05-05T09:08:39.026Z,101374.69
2023-05-05T09:11:06.201Z,101383.53
2023-05-05T09:13:33.058Z,101384.03
2023-05-05T09:15:59.793Z,101379.09
2023-05-05T09:18:26.844Z,101369.59
2023-05-05T09:20:53.510Z,101370.16
2023-05-05T09:23:21.386Z,101362.13
2023-05-05T09:26:03.880Z,101371.03
2023-05-05T09:28:30.497Z,101362.06
2023-05-05T09:31:15.442Z,101368.63
2023-05-05T09:33:42.307Z,101365.50
2023-05-05T09:36:08.876Z,101358.66
2023-05-05T09:38:36.770Z,101357.63
2023-05-05T09:41:05.363Z,101350.69
2023-05-05T09:43:50.126Z,101359.34
2023-05-05T09:46:16.831Z,101349.41
2023-05-05T09:48:43.454Z,101321.72
2023-05-05T09:51:10.148Z,101345.06
2023-05-05T09:53:41.563Z,101348.28
2023-05-05T09:56:08.360Z,101343.38
2023-05-05T09:58:34.939Z,101333.47
2023-05-05T10:01:01.682Z,101345.41
2023-05-05T10:03:28.278Z,101333.44
2023-05-05T10:05:56.874Z,101342.53
2023-05-05T10:08:26.418Z,101325.50
2023-05-05T10:11:01.911Z,101328.16
2023-05-05T10:13:30.104Z,101326.81
2023-05-05T10:15:57.958Z,101318.41
2023-05-05T10:18:27.050Z,101317.19
2023-05-05T10:21:04.148Z,101319.69
2023-05-05T10:23:48.985Z,101316.94
2023-05-05T10:26:18.650Z,101295.47
2023-05-05T10:28:50.545Z,101314.88
2023-05-05T10:31:25.765Z,101300.31
2023-05-05T10:34:03.913Z,101315.53
2023-05-05T10:36:31.893Z,101302.34
2023-05-05T10:39:00.577Z,101294.41
2023-05-05T10:41:28.582Z,101293.78
2023-05-05T10:43:56.601Z,101297.72
2023-05-05T10:46:24.197Z,101297.56
2023-05-05T10:49:02.592Z,101291.84
2023-05-05T10:51:54.559Z,101286.28
2023-05-05T10:54:32.637Z,101285.88
2023-05-05T10:57:02.653Z,101279.78
2023-05-05T10:59:38.665Z,101274.03
2023-05-05T11:02:28.325Z,101263.09
2023-05-05T11:05:23.324Z,101252.22
2023-05-05T11:07:52.862Z,101251.75
2023-05-05T11:10:20.976Z,101257.22
2023-05-05T11:12:57.909Z,101260.00
2023-05-05T11:15:30.550Z,101249.22
2023-05-05T11:17:58.423Z,101244.47
2023-05-05T11:20:48.128Z,101246.22
2023-05-05T11:23:20.503Z,101244.56
2023-05-05T11:25:48.093Z,101243.94
2023-05-05T11:28:16.432Z,101242.34
2023-05-05T11:30:55.294Z,101235.75
2023-05-05T11:33:29.247Z,101234.88
2023-05-05T11:36:04.254Z,101233.78
2023-05-05T11:38:54.631Z,101231.63
2023-05-05T11:41:33.566Z,101235.19
2023-05-05T11:44:19.738Z,101217.16
2023-05-05T11:46:52.500Z,101226.09
2023-05-05T11:49:39.041Z,101222.75
2023-05-05T11:52:08.132Z,101217.91
2023-05-05T11:54:37.738Z,101208.78
2023-05-05T11:57:07.187Z,101215.31
2023-05-05T11:59:53.237Z,101211.53
2023-05-05T12:02:20.573Z,101211.41
2023-05-05T12:04:49.607Z,101211.63
2023-05-05T12:07:22.496Z,101216.75
2023-05-05T12:09:50.084Z,101209.72
2023-05-05T12:12:17.288Z,101208.75
2023-05-05T12:14:52.454Z,101199.34
2023-05-05T12:17:20.701Z,101201.91
2023-05-05T12:19:54.969Z,101201.13
2023-05-05T12:22:26.087Z,101192.22
2023-05-05T12:24:57.114Z,101189.94
2023-05-05T12:27:24.543Z,101189.41
2023-05-05T12:29:51.506Z,101185.25
2023-05-05T12:32:22.693Z,101183.16
2023-05-05T12:34:53.849Z,101181.13
2023-05-05T12:37:21.836Z,101178.31
2023-05-05T12:39:49.948Z,101174.13
2023-05-05T12:42:16.757Z,101162.47
2023-05-05T12:44:44.402Z,101167.28
2023-05-05T12:47:12.405Z,101161.63
2023-05-05T12:49:49.726Z,101144.47
2023-05-05T12:52:16.872Z,101155.94
2023-05-05T12:55:01.661Z,101151.16
2023-05-05T12:57:28.256Z,101150.69
2023-05-05T12:59:54.931Z,101147.47
2023-05-05T13:02:21.661Z,101150.72
2023-05-05T13:04:50.563Z,101145.31
2023-05-05T13:07:19.756Z,101148.72
2023-05-05T13:09:50.693Z,101145.75
2023-05-05T13:12:17.953Z,101136.50
2023-05-05T13:14:45.349Z,101129.63
2023-05-05T13:17:12.302Z,101132.97
2023-05-05T13:19:42.796Z,101121.41
2023-05-05T13:22:13.026Z,101122.81
2023-05-05T13:24:50.684Z,101127.66
2023-05-05T13:27:19.016Z,101113.69
2023-05-05T13:29:46.172Z,101111.41
2023-05-05T13:32:12.831Z,101103.25
2023-05-05T13:34:39.663Z,101107.47
2023-05-05T13:37:06.749Z,101110.66
2023-05-05T13:39:33.334Z,101097.34
2023-05-05T13:42:00.007Z,101102.03
2023-05-05T13:44:26.631Z,101107.19
2023-05-05T13:46:53.346Z,101106.25
2023-05-05T13:49:20.255Z,101096.75
2023-05-05T13:51:47.434Z,101090.31
2023-05-05T13:54:14.117Z,101094.47
2023-05-05T13:56:40.898Z,101069.78
2023-05-05T13:59:07.516Z,101082.91
2023-05-05T14:01:34.199Z,101082.72
2023-05-05T14:04:03.656Z,101072.88
2023-05-05T14:06:32.612Z,101077.19
2023-05-05T14:08:59.376Z,101074.94
2023-05-05T14:11:26.042Z,101078.78
2023-05-05T14:13:52.879Z,101068.88
2023-05-05T14:16:19.605Z,101073.97
2023-05-05T14:18:46.270Z,101068.31
2023-05-05T14:21:12.982Z,101058.16
2023-05-05T14:23:39.629Z,101065.41
2023-05-05T14:26:06.299Z,101046.25
2023-05-05T14:28:32.910Z,101050.81
2023-05-05T14:30:59.582Z,101063.09
2023-05-05T14:33:26.633Z,101059.34
2023-05-05T14:35:53.290Z,101061.09
2023-05-05T14:38:19.987Z,101059.38
2023-05-05T14:40:46.690Z,101048.56
2023-05-05T14:43:13.375Z,101054.78
2023-05-05T14:45:40.112Z,101047.44
2023-05-05T14:48:06.878Z,101044.25
2023-05-05T14:50:33.502Z,101023.84
2023-05-05T14:53:00.582Z,101049.03
2023-05-05T14:55:27.289Z,101047.38
2023-05-05T14:57:53.893Z,101039.81
2023-05-05T15:00:20.671Z,101042.66
2023-05-05T15:02:48.408Z,101045.94
2023-05-05T15:05:15.336Z,101044.88
2023-05-05T15:07:41.967Z,101046.41
2023-05-05T15:10:09.044Z,101057.66
2023-05-05T15:12:35.838Z,101053.19
2023-05-05T15:15:02.669Z,101038.75
2023-05-05T15:17:30.850Z,101043.16
2023-05-05T15:19:57.500Z,101045.28
2023-05-05T15:22:24.241Z,101037.25
2023-05-05T15:24:50.973Z,101024.03
2023-05-05T15:27:18.309Z,101031.34
2023-05-05T15:29:45.104Z,101038.00
2023-05-05T15:32:11.914Z,101017.84
2023-05-05T15:34:38.574Z,101037.44
2023-05-05T15:37:05.213Z,101018.13
2023-05-05T15:39:31.823Z,101021.78
2023-05-05T15:42:03.747Z,101019.94
2023-05-05T15:44:31.238Z,101023.50
2023-05-05T15:46:57.945Z,101020.81
2023-05-05T15:49:24.682Z,101007.75
2023-05-05T15:51:51.289Z,101020.63
2023-05-05T15:54:17.983Z,101003.22
2023-05-05T15:56:44.709Z,101008.38
2023-05-05T15:59:11.326Z,101011.63
2023-05-05T16:01:38.061Z,101005.41
2023-05-05T16:04:04.923Z,100989.22
2023-05-05T16:06:31.824Z,101005.75
2023-05-05T16:08:58.752Z,101005.94
2023-05-05T16:11:26.528Z,101003.16
2023-05-05T16:13:53.697Z,101002.94
2023-05-05T16:16:20.435Z,100983.06
2023-05-05T16:18:47.119Z,100992.19
2023-05-05T16:21:14.088Z,100984.13
2023-05-05T16:23:40.795Z,100998.66
2023-05-05T16:26:07.385Z,100981.25
2023-05-05T16:28:34.412Z,100976.56
2023-05-05T16:31:02.272Z,100986.63
2023-05-05T16:33:29.245Z,100970.31
2023-05-05T16:35:56.248Z,100995.94
2023-05-05T16:38:22.914Z,100981.91
2023-05-05T16:40:49.695Z,100978.69
2023-05-05T16:43:16.450Z,100991.03
2023-05-05T16:45:43.611Z,100995.69
2023-05-05T16:48:10.451Z,100974.50
2023-05-05T16:50:37.109Z,100967.34
2023-05-05T16:53:03.807Z,100961.47
2023-05-05T16:55:30.484Z,100958.59
2023-05-05T16:57:57.304Z,100974.16
2023-05-05T17:00:23.911Z,100963.63
2023-05-05T17:02:50.557Z,100977.50
2023-05-05T17:05:17.816Z,100959.19
2023-05-05T17:07:45.904Z,100962.09
2023-05-05T17:10:12.627Z,100958.13
2023-05-05T17:12:39.302Z,100969.59
2023-05-05T17:15:07.007Z,100970.25
2023-05-05T17:17:33.875Z,100970.69
2023-05-05T17:20:03.063Z,100979.94
2023-05-05T17:22:29.810Z,100969.00
2023-05-05T17:24:56.617Z,100968.00
2023-05-05T17:27:23.201Z,100969.16
2023-05-05T17:29:49.878Z,100967.19
2023-05-05T17:32:16.460Z,100966.94
2023-05-05T17:34:43.052Z,100970.38
2023-05-05T17:37:09.783Z,100968.41
2023-05-05T17:39:36.413Z,100971.22
2023-05-05T17:42:04.312Z,100975.63
2023-05-05T17:44:32.591Z,100966.41
2023-05-05T17:46:59.350Z,100980.69
2023-05-05T17:49:26.357Z,100965.00
2023-05-05T17:51:53.030Z,100974.94
2023-05-05T17:54:19.658Z,100979.44
2023-05-05T17:56:46.406Z,100982.81
2023-05-05T17:59:13.028Z,100987.50
2023-05-05T18:01:39.725Z,100984.66
2023-05-05T18:04:06.353Z,100985.53
2023-05-05T18:06:32.963Z,100984.97
2023-05-05T18:08:59.610Z,100980.63
2023-05-05T18:11:30.930Z,100990.81
2023-05-05T18:13:57.677Z,100995.44
2023-05-05T18:16:24.258Z,100979.94
2023-05-05T18:18:50.964Z,100990.50
2023-05-05T18:21:17.587Z,100989.50
2023-05-05T18:23:44.274Z,100989.53
2023-05-05T18:26:10.989Z,100982.03
2023-05-05T18:28:37.661Z,100980.34
2023-05-05T18:31:04.392Z,100972.59
2023-05-05T18:33:31.120Z,100975.19
2023-05-05T18:35:57.993Z,100969.72
2023-05-05T18:38:24.849Z,100991.44
2023-05-05T18:40:51.548Z,100984.94
2023-05-05T18:43:18.211Z,100978.25
2023-05-05T18:45:44.920Z,100986.06
2023-05-05T18:48:11.902Z,100986.94
2023-05-05T18:50:38.696Z,100986.56
2023-05-05T18:53:05.358Z,101001.28
2023-05-05T18:55:31.927Z,100995.19
2023-05-05T18:57:58.539Z,100972.47
2023-05-05T19:00:25.353Z,100998.59
2023-05-05T19:02:52.079Z,100996.53
2023-05-05T19:05:18.828Z,101003.91
2023-05-05T19:07:45.796Z,100990.66
2023-05-05T19:10:12.491Z,100981.19
2023-05-05T19:12:39.192Z,101002.44
2023-05-05T19:15:06.976Z,100996.78
2023-05-05T19:17:34.027Z,100990.66
2023-05-05T19:20:00.722Z,101005.38
2023-05-05T19:22:27.336Z,100994.22
2023-05-05T19:24:53.986Z,101001.16
2023-05-05T19:27:21.889Z,101004.53
2023-05-05T19:29:52.735Z,100998.41
2023-05-05T19:32:20.904Z,100997.97
2023-05-05T19:34:48.028Z,101001.91
2023-05-05T19:37:14.630Z,101010.34
2023-05-05T19:39:44.393Z,101013.28
2023-05-05T19:42:11.434Z,101004.41
2023-05-05T19:44:38.120Z,101012.19
2023-05-05T19:47:05.190Z,101006.50
2023-05-05T19:49:32.082Z,101007.69
2023-05-05T19:51:59.357Z,101006.84
2023-05-05T19:54:26.837Z,101015.00
2023-05-05T19:56:55.212Z,101001.50
2023-05-05T19:59:22.041Z,101006.28
2023-05-05T20:01:48.798Z,100986.91
2023-05-05T20:04:15.537Z,101013.34
2023-05-05T20:06:42.205Z,101012.44
2023-05-05T20:09:08.873Z,101009.38
2023-05-05T20:11:35.907Z,101016.91
2023-05-05T20:14:02.614Z,101021.00
2023-05-05T20:16:29.322Z,101010.59
2023-05-05T20:18:56.147Z,101026.19
2023-05-05T20:21:23.234Z,100999.63
2023-05-05T20:23:49.956Z,101002.19
2023-05-05T20:26:17.055Z,101015.19
2023-05-05T20:28:45.461Z,101021.28
2023-05-05T20:31:14.175Z,101020.63
2023-05-05T20:33:40.837Z,101028.34
2023-05-05T20:36:07.602Z,101011.09
2023-05-05T20:38:34.185Z,101013.09
2023-05-05T20:41:00.766Z,101015.59
2023-05-05T20:43:27.668Z,101018.88
2023-05-05T20:45:54.258Z,101017.97
2023-05-05T20:48:21.093Z,101030.63
2023-05-05T20:50:47.685Z,101024.53
2023-05-05T20:53:14.977Z,101022.41
2023-05-05T20:55:41.700Z,101022.19
2023-05-05T20:58:08.243Z,101019.91
2023-05-05T21:00:34.991Z,101020.97
2023-05-05T21:03:02.886Z,101006.53
2023-05-05T21:05:30.848Z,101011.09
2023-05-05T21:07:59.186Z,101023.69
2023-05-05T21:10:27.434Z,101021.00
2023-05-05T21:12:54.226Z,100998.31
2023-05-05T21:15:20.922Z,101007.81
2023-05-05T21:17:47.957Z,101021.72
2023-05-05T21:20:14.712Z,101019.63
2023-05-05T21:22:41.428Z,101019.28
2023-05-05T21:25:19.722Z,101021.03
2023-05-05T21:27:49.817Z,101031.06
2023-05-05T21:30:17.118Z,101017.69
2023-05-05T21:32:44.210Z,101019.84
2023-05-05T21:35:10.814Z,101024.66
2023-05-05T21:37:39.204Z,101023.34
2023-05-05T21:40:10.782Z,101020.28
2023-05-05T21:42:37.679Z,101023.97
2023-05-05T21:45:04.626Z,101016.47
2023-05-05T21:47:31.520Z,101007.25
2023-05-05T21:49:59.099Z,101008.88
2023-05-05T21:52:27.806Z,101004.84
2023-05-05T21:54:54.256Z,101029.41
2023-05-05T21:57:20.909Z,101014.97
2023-05-05T21:59:48.542Z,100998.47
2023-05-05T22:02:15.180Z,101013.09
2023-05-05T22:04:42.213Z,101006.03
2023-05-05T22:07:09.823Z,100998.84
2023-05-05T22:09:36.785Z,101016.88
2023-05-05T22:12:03.549Z,101019.13
2023-05-05T22:14:30.183Z,101013.03
2023-05-05T22:16:56.878Z,100996.59
2023-05-05T22:19:23.523Z,101012.94
2023-05-05T22:21:50.275Z,100994.16
2023-05-05T22:24:16.957Z,101003.75
2023-05-05T22:26:43.699Z,101010.69
2023-05-05T22:29:11.586Z,101008.91
2023-05-05T22:31:38.542Z,100999.28
2023-05-05T22:34:05.198Z,101022.34
2023-05-05T22:36:31.857Z,101015.84
2023-05-05T22:38:58.572Z,100999.50
2023-05-05T22:41:25.304Z,100990.22
2023-05-05T22:43:51.862Z,101009.16
2023-05-05T22:46:18.594Z,100982.59
2023-05-05T22:48:45.347Z,100992.06
2023-05-05T22:51:11.942Z,101015.13
2023-05-05T22:53:39.324Z,101011.41
2023-05-05T22:56:06.334Z,101006.25
2023-05-05T22:58:33.418Z,101004.31
2023-05-05T23:01:00.020Z,101009.50
2023-05-05T23:03:26.736Z,100999.66
2023-05-05T23:05:53.314Z,100977.41
2023-05-05T23:08:20.552Z,100982.53
2023-05-05T23:10:47.219Z,100988.63
2023-05-05T23:13:13.880Z,100982.88
2023-05-05T23:15:41.239Z,100993.06
2023-05-05T23:18:08.053Z,101007.31
2023-05-05T23:20:34.847Z,100997.81
2023-05-05T23:23:01.469Z,101002.94
2023-05-05T23:25:28.091Z,100993.75
2023-05-05T23:27:54.731Z,100998.44
2023-05-05T23:30:21.523Z,100994.53
2023-05-05T23:32:48.168Z,100981.69
2023-05-05T23:35:15.019Z,100997.31
2023-05-05T23:37:41.651Z,100975.88
2023-05-05T23:40:08.850Z,100976.34
2023-05-05T23:42:35.565Z,100990.25
2023-05-05T23:45:02.322Z,100992.28
2023-05-05T23:47:28.898Z,100947.31
2023-05-05T23:49:55.506Z,100975.19
2023-05-05T23:52:22.574Z,100964.53
2023-05-05T23:54:49.150Z,100969.22
2023-05-05T23:57:16.044Z,100956.19
2023-05-05T23:59:42.644Z,100982.44
